Time;durP1;ratioP1;P1;durP2;ratioP2;P2;SDS_P1;SDS_P2;PMS_P1;PMS_P2;Temp;Humidity;BMP_temperature;BMP_pressure;BME280_temperature;BME280_humidity;BME280_pressure;Samples;Min_cycle;Max_cycle;Signal;HPM_P1;HPM_P2
2023/12/21 00:01:04;;;;;;;8.48;1.30;;;9.40;99.90;;;;;;5049086;28;20124;-76
2023/12/21 00:03:29;;;;;;;5.85;1.00;;;9.40;99.90;;;;;;5054623;28;20044;-76
2023/12/21 00:05:55;;;;;;;10.13;1.20;;;9.30;99.90;;;;;;5052752;28;20052;-76
2023/12/21 00:08:21;;;;;;;7.55;1.58;;;9.40;99.90;;;;;;5057087;28;20036;-76
2023/12/21 00:10:47;;;;;;;8.48;1.63;;;9.40;99.90;;;;;;5052708;28;20108;-74
2023/12/21 00:13:12;;;;;;;3.42;0.95;;;9.40;99.90;;;;;;5053048;28;20036;-76
2023/12/21 00:15:38;;;;;;;8.02;1.33;;;9.40;99.90;;;;;;5070151;28;20515;-76
2023/12/21 00:18:04;;;;;;;10.05;1.30;;;9.40;99.90;;;;;;5029919;28;20463;-75
2023/12/21 00:20:30;;;;;;;5.10;1.13;;;9.40;99.90;;;;;;5057613;28;20060;-76
2023/12/21 00:22:56;;;;;;;2.38;0.80;;;9.40;99.90;;;;;;5047821;28;20045;-75
2023/12/21 00:25:21;;;;;;;1.10;0.85;;;9.40;99.90;;;;;;5061287;28;20079;-77
2023/12/21 00:27:47;;;;;;;10.23;2.15;;;9.40;99.90;;;;;;5053270;28;20400;-76
2023/12/21 00:30:13;;;;;;;6.60;1.42;;;9.30;99.90;;;;;;5043387;28;20075;-75
2023/12/21 00:32:39;;;;;;;5.72;1.10;;;9.30;99.90;;;;;;5049188;28;20102;-77
2023/12/21 00:35:05;;;;;;;13.20;1.40;;;9.40;99.90;;;;;;5032264;28;20045;-74
2023/12/21 00:37:36;;;;;;;3.58;0.82;;;9.30;99.90;;;;;;5051326;28;20056;-75
2023/12/21 00:40:06;;;;;;;2.97;1.45;;;9.40;99.90;;;;;;5038584;28;20093;-75
2023/12/21 00:42:33;;;;;;;8.65;1.67;;;9.40;99.90;;;;;;5055203;28;20709;-74
2023/12/21 00:44:59;;;;;;;4.95;1.50;;;9.30;99.90;;;;;;5044239;28;20480;-74
2023/12/21 00:47:25;;;;;;;2.53;0.88;;;9.40;99.90;;;;;;5060927;28;20036;-76
2023/12/21 00:49:51;;;;;;;2.58;0.82;;;9.40;99.90;;;;;;5073496;28;20052;-78
2023/12/21 00:52:17;;;;;;;6.05;1.25;;;9.40;99.90;;;;;;5061121;28;20033;-76
2023/12/21 00:54:42;;;;;;;1.73;0.70;;;9.40;99.90;;;;;;5056766;28;20099;-75
2023/12/21 00:57:08;;;;;;;1.98;1.00;;;9.40;99.90;;;;;;5047886;28;20070;-76
2023/12/21 00:59:34;;;;;;;4.07;0.70;;;9.40;99.90;;;;;;5056634;28;20116;-75
2023/12/21 01:02:01;;;;;;;8.23;1.63;;;9.40;99.90;;;;;;5065449;28;20653;-76
2023/12/21 01:04:27;;;;;;;3.95;1.40;;;9.40;99.90;;;;;;5041852;28;20043;-74
2023/12/21 01:06:53;;;;;;;2.70;1.42;;;9.40;99.90;;;;;;5058575;28;20408;-76
2023/12/21 01:09:19;;;;;;;5.97;1.27;;;9.40;99.90;;;;;;5033788;28;20048;-75
2023/12/21 01:11:44;;;;;;;4.18;1.15;;;9.40;99.90;;;;;;5056154;28;20040;-77
2023/12/21 01:14:10;;;;;;;1.55;0.60;;;9.40;99.90;;;;;;5056367;28;20506;-76
2023/12/21 01:16:36;;;;;;;7.43;1.65;;;9.40;99.90;;;;;;5055724;28;20412;-74
2023/12/21 01:19:02;;;;;;;4.28;1.05;;;9.30;99.90;;;;;;5053707;28;20177;-78
2023/12/21 01:21:28;;;;;;;5.13;1.30;;;9.40;99.90;;;;;;5041207;28;20098;-78
2023/12/21 01:23:55;;;;;;;5.10;0.90;;;9.40;99.90;;;;;;5055995;28;20038;-74
2023/12/21 01:26:20;;;;;;;6.35;0.75;;;9.40;99.90;;;;;;5064003;28;20070;-74
2023/12/21 01:28:46;;;;;;;5.43;1.45;;;9.40;99.90;;;;;;5055148;28;20028;-75
2023/12/21 01:31:12;;;;;;;7.72;1.73;;;9.30;99.90;;;;;;5068060;28;20086;-76
2023/12/21 01:33:38;;;;;;;3.97;1.27;;;9.30;99.90;;;;;;5052994;28;20074;-75
2023/12/21 01:36:07;;;;;;;7.45;1.58;;;9.30;99.90;;;;;;5042035;28;20033;-75
2023/12/21 01:38:34;;;;;;;6.68;1.92;;;9.30;99.90;;;;;;5033593;28;20041;-75
2023/12/21 01:40:59;;;;;;;6.57;1.23;;;9.40;99.90;;;;;;5042687;28;20080;-75
2023/12/21 01:43:25;;;;;;;3.75;1.73;;;9.30;99.90;;;;;;5032243;28;20088;-76
2023/12/21 01:45:53;;;;;;;1.90;0.82;;;9.40;99.90;;;;;;5016160;28;20037;-74
2023/12/21 01:48:20;;;;;;;5.60;1.20;;;9.30;99.90;;;;;;5031711;28;20049;-75
2023/12/21 01:50:46;;;;;;;4.05;0.90;;;9.30;99.90;;;;;;5036500;28;20045;-75
2023/12/21 01:53:13;;;;;;;5.30;0.68;;;9.30;99.90;;;;;;5032303;28;20116;-74
2023/12/21 01:55:40;;;;;;;11.10;1.13;;;9.30;99.90;;;;;;5036342;28;20033;-75
2023/12/21 01:58:07;;;;;;;5.45;0.77;;;9.30;99.90;;;;;;5038629;28;20041;-78
2023/12/21 02:00:34;;;;;;;1.38;0.63;;;9.40;99.90;;;;;;5029362;28;20057;-74
2023/12/21 02:03:01;;;;;;;1.55;0.65;;;9.30;99.90;;;;;;5015300;28;20043;-74
2023/12/21 02:05:26;;;;;;;9.23;1.33;;;9.40;99.90;;;;;;5010107;28;20049;-76
2023/12/21 02:07:52;;;;;;;8.70;0.73;;;9.40;99.90;;;;;;5031251;28;20034;-77
2023/12/21 02:10:19;;;;;;;1.80;0.47;;;9.40;99.90;;;;;;5042668;28;20044;-75
2023/12/21 02:12:44;;;;;;;2.97;0.75;;;9.40;99.90;;;;;;5023978;28;20050;-77
2023/12/21 02:15:11;;;;;;;3.78;1.23;;;9.50;99.90;;;;;;5014596;28;20092;-75
2023/12/21 02:17:39;;;;;;;2.08;0.90;;;9.40;99.90;;;;;;5024741;28;20041;-75
2023/12/21 02:20:06;;;;;;;2.60;0.77;;;9.50;99.90;;;;;;5031630;28;20193;-76
2023/12/21 02:22:34;;;;;;;2.42;0.70;;;9.40;99.90;;;;;;5008029;28;20042;-75
2023/12/21 02:25:01;;;;;;;1.92;0.93;;;9.50;99.90;;;;;;5030740;28;20501;-76
2023/12/21 02:27:27;;;;;;;1.65;0.85;;;9.40;99.90;;;;;;5030809;28;20052;-76
2023/12/21 02:29:53;;;;;;;1.13;0.40;;;9.50;99.90;;;;;;5035207;28;20367;-76
2023/12/21 02:32:19;;;;;;;5.93;1.38;;;9.50;99.90;;;;;;5035520;28;20033;-74
2023/12/21 02:34:48;;;;;;;4.70;1.35;;;9.50;99.90;;;;;;5013400;28;20037;-75
2023/12/21 02:37:14;;;;;;;4.80;0.43;;;9.50;99.90;;;;;;5026016;28;20045;-75
2023/12/21 02:39:39;;;;;;;5.65;0.95;;;9.40;99.90;;;;;;5013109;28;20528;-76
2023/12/21 02:42:05;;;;;;;7.35;0.85;;;9.40;99.90;;;;;;5028739;28;20060;-76
2023/12/21 02:44:31;;;;;;;1.88;0.68;;;9.40;99.90;;;;;;5031183;28;20068;-75
2023/12/21 02:46:58;;;;;;;1.10;0.40;;;9.40;99.90;;;;;;5026392;28;20041;-76
2023/12/21 02:49:24;;;;;;;3.65;1.00;;;9.50;99.90;;;;;;5014654;28;20092;-75
2023/12/21 02:51:49;;;;;;;3.25;0.95;;;9.40;99.90;;;;;;5031180;28;20556;-75
2023/12/21 02:54:15;;;;;;;6.45;0.90;;;9.40;99.90;;;;;;5030831;28;20528;-76
2023/12/21 02:56:41;;;;;;;7.82;0.98;;;9.40;99.90;;;;;;5026197;28;20417;-75
2023/12/21 02:59:07;;;;;;;2.10;1.08;;;9.40;99.90;;;;;;5030432;28;20092;-77
2023/12/21 03:01:33;;;;;;;3.35;1.23;;;9.40;99.90;;;;;;5025411;28;20046;-77
2023/12/21 03:04:00;;;;;;;5.70;1.42;;;9.40;99.90;;;;;;5032933;28;20041;-76
2023/12/21 03:06:26;;;;;;;2.78;0.80;;;9.30;99.90;;;;;;5030578;28;20113;-75
2023/12/21 03:08:53;;;;;;;2.30;1.00;;;9.30;99.90;;;;;;5029936;28;20525;-75
2023/12/21 03:11:18;;;;;;;1.77;0.77;;;9.20;99.90;;;;;;5025838;28;20420;-76
2023/12/21 03:13:44;;;;;;;4.35;1.88;;;9.20;99.90;;;;;;5030573;28;20046;-73
2023/12/21 03:16:10;;;;;;;4.03;0.73;;;9.20;99.90;;;;;;5033217;28;20033;-76
2023/12/21 03:18:36;;;;;;;5.07;1.23;;;9.20;99.90;;;;;;5025572;28;20057;-74
2023/12/21 03:21:02;;;;;;;4.60;0.52;;;9.20;99.90;;;;;;5034177;28;20393;-77
2023/12/21 03:23:28;;;;;;;1.23;0.50;;;9.20;99.90;;;;;;5017590;28;20044;-73
2023/12/21 03:25:54;;;;;;;5.57;1.02;;;9.20;99.90;;;;;;5034387;28;20103;-76
2023/12/21 03:28:20;;;;;;;4.20;0.95;;;9.10;99.90;;;;;;5009087;28;20042;-77
2023/12/21 03:30:46;;;;;;;2.25;0.85;;;9.10;99.90;;;;;;5029625;28;20079;-75
2023/12/21 03:33:12;;;;;;;4.05;1.58;;;9.10;99.90;;;;;;5027587;28;20029;-75
2023/12/21 03:35:37;;;;;;;3.55;1.40;;;9.10;99.90;;;;;;5030086;28;20042;-75
2023/12/21 03:38:03;;;;;;;3.50;1.33;;;9.10;99.90;;;;;;5031354;28;20037;-77
2023/12/21 03:40:30;;;;;;;4.13;1.92;;;9.20;99.90;;;;;;5031194;28;20053;-75
2023/12/21 03:42:55;;;;;;;4.43;1.25;;;9.20;99.90;;;;;;5021627;28;20057;-77
2023/12/21 03:45:21;;;;;;;1.80;1.42;;;9.20;99.90;;;;;;5033988;28;20079;-76
2023/12/21 03:47:50;;;;;;;4.85;1.60;;;9.30;99.90;;;;;;5029829;28;20029;-75
2023/12/21 03:50:15;;;;;;;6.05;1.60;;;9.20;99.90;;;;;;5034344;28;20037;-75
2023/12/21 03:52:41;;;;;;;11.05;1.50;;;9.20;99.90;;;;;;5029427;28;20471;-75
2023/12/21 03:55:07;;;;;;;1.80;0.82;;;9.20;99.90;;;;;;5013233;28;20045;-77
2023/12/21 03:57:33;;;;;;;2.97;0.95;;;9.30;99.90;;;;;;5013353;28;20120;-75
2023/12/21 04:00:00;;;;;;;1.52;0.80;;;9.30;99.90;;;;;;5029629;28;20549;-76
2023/12/21 04:02:26;;;;;;;3.45;1.13;;;9.30;99.90;;;;;;5037269;28;20508;-75
2023/12/21 04:04:52;;;;;;;1.10;0.57;;;9.30;99.90;;;;;;5022006;28;20037;-78
2023/12/21 04:07:18;;;;;;;9.73;1.40;;;9.30;99.90;;;;;;5032370;28;20037;-78
2023/12/21 04:09:44;;;;;;;2.20;0.93;;;9.30;99.90;;;;;;5011901;28;20128;-77
2023/12/21 04:12:10;;;;;;;11.50;1.45;;;9.30;99.90;;;;;;5021834;28;20038;-77
2023/12/21 04:14:35;;;;;;;4.47;1.55;;;9.30;99.90;;;;;;5038192;28;20393;-78
2023/12/21 04:17:01;;;;;;;3.65;0.88;;;9.30;99.90;;;;;;5024681;28;20191;-79
2023/12/21 04:19:27;;;;;;;7.10;1.27;;;9.30;99.90;;;;;;5043060;28;20084;-78
2023/12/21 04:21:53;;;;;;;7.90;1.33;;;9.30;99.90;;;;;;5022409;28;20090;-77
2023/12/21 04:24:19;;;;;;;2.28;0.88;;;9.30;99.90;;;;;;5046084;28;20037;-79
2023/12/21 04:26:45;;;;;;;12.50;1.52;;;9.30;99.90;;;;;;5029255;28;20402;-77
2023/12/21 04:29:11;;;;;;;5.97;1.10;;;9.30;99.90;;;;;;5034869;28;20072;-78
2023/12/21 04:31:41;;;;;;;1.77;0.70;;;9.30;99.90;;;;;;5036384;28;20494;-76
2023/12/21 04:34:06;;;;;;;2.92;1.58;;;9.30;99.90;;;;;;5046880;28;20044;-80
2023/12/21 04:36:32;;;;;;;3.53;0.70;;;9.30;99.90;;;;;;5039390;28;20041;-77
2023/12/21 04:38:58;;;;;;;5.70;0.95;;;9.30;99.90;;;;;;5042417;28;20690;-78
2023/12/21 04:41:24;;;;;;;3.13;0.50;;;9.30;99.90;;;;;;5042263;28;20041;-78
2023/12/21 04:43:50;;;;;;;5.00;1.50;;;9.30;99.90;;;;;;5031563;28;20533;-80
2023/12/21 04:46:16;;;;;;;2.60;1.30;;;9.40;99.90;;;;;;5036292;28;20037;-77
2023/12/21 04:48:42;;;;;;;4.30;0.57;;;9.40;99.90;;;;;;5044068;28;20127;-77
2023/12/21 04:51:15;;;;;;;2.25;0.85;;;9.40;99.90;;;;;;5044462;28;20033;-79
2023/12/21 04:53:40;;;;;;;5.75;1.55;;;9.40;99.90;;;;;;5043793;28;20049;-77
2023/12/21 04:56:06;;;;;;;4.65;0.90;;;9.50;99.90;;;;;;5044974;28;20120;-76
2023/12/21 04:58:32;;;;;;;2.60;0.90;;;9.50;99.90;;;;;;5034205;28;20041;-77
2023/12/21 05:00:58;;;;;;;2.25;1.25;;;9.50;99.90;;;;;;5041579;28;20055;-76
2023/12/21 05:03:24;;;;;;;7.80;1.17;;;9.60;99.90;;;;;;5030245;28;20197;-77
2023/12/21 05:05:50;;;;;;;4.05;0.50;;;9.60;99.90;;;;;;5038106;28;20120;-77
2023/12/21 05:08:17;;;;;;;11.77;1.35;;;9.50;99.90;;;;;;5029728;28;20038;-81
2023/12/21 05:10:42;;;;;;;4.50;0.68;;;9.50;99.90;;;;;;5042374;28;20120;-76
2023/12/21 05:13:08;;;;;;;9.18;1.60;;;9.60;99.90;;;;;;5038196;28;20121;-76
2023/12/21 05:15:34;;;;;;;6.32;0.70;;;9.50;99.90;;;;;;5037986;28;20056;-78
2023/12/21 05:18:00;;;;;;;1.10;0.70;;;9.60;99.90;;;;;;5025517;28;20485;-79
2023/12/21 05:20:26;;;;;;;3.17;0.70;;;9.60;99.90;;;;;;5037917;28;20041;-76
2023/12/21 05:22:51;;;;;;;6.70;0.90;;;9.60;99.90;;;;;;5041879;28;20088;-76
2023/12/21 05:25:17;;;;;;;3.13;0.90;;;9.60;99.90;;;;;;5037388;28;20508;-79
2023/12/21 05:27:43;;;;;;;4.57;0.60;;;9.60;99.90;;;;;;5030775;28;20057;-75
2023/12/21 05:30:09;;;;;;;4.05;1.05;;;9.70;99.90;;;;;;5045500;28;20108;-79
2023/12/21 05:32:35;;;;;;;2.50;0.73;;;9.70;99.90;;;;;;5032161;28;20527;-76
2023/12/21 05:35:02;;;;;;;3.80;1.13;;;9.70;99.90;;;;;;5031161;28;20111;-79
2023/12/21 05:37:27;;;;;;;9.85;0.88;;;9.70;99.90;;;;;;5030114;28;20049;-80
2023/12/21 05:39:53;;;;;;;2.75;1.02;;;9.70;99.90;;;;;;5020046;28;20040;-78
2023/12/21 05:42:19;;;;;;;0.90;0.60;;;9.70;99.90;;;;;;5045037;28;20053;-80
2023/12/21 05:44:45;;;;;;;3.33;1.33;;;9.70;99.90;;;;;;5014519;28;20045;-79
2023/12/21 05:47:10;;;;;;;2.97;0.88;;;9.70;99.90;;;;;;5035858;28;20077;-78
2023/12/21 05:49:36;;;;;;;5.25;1.67;;;9.60;99.90;;;;;;5031846;28;20050;-78
2023/12/21 05:52:02;;;;;;;1.42;0.80;;;9.60;99.90;;;;;;5031806;28;20046;-78
2023/12/21 05:54:30;;;;;;;1.83;0.82;;;9.70;99.90;;;;;;5040869;28;20037;-79
2023/12/21 05:56:56;;;;;;;1.95;0.60;;;9.60;99.90;;;;;;5026791;28;20514;-79
2023/12/21 05:59:22;;;;;;;1.75;0.40;;;9.60;99.90;;;;;;5032962;28;20124;-79
2023/12/21 06:01:48;;;;;;;6.13;1.38;;;9.70;99.90;;;;;;5024216;28;20378;-74
2023/12/21 06:04:14;;;;;;;1.88;1.05;;;9.70;99.90;;;;;;5025907;28;20401;-75
2023/12/21 06:06:44;;;;;;;1.13;0.57;;;9.70;99.90;;;;;;5044086;28;20036;-75
2023/12/21 06:09:10;;;;;;;1.38;0.63;;;9.70;99.90;;;;;;5038906;28;20041;-76
2023/12/21 06:11:36;;;;;;;4.07;1.48;;;9.70;99.90;;;;;;5026029;28;20041;-78
2023/12/21 06:14:02;;;;;;;4.78;1.45;;;9.80;99.90;;;;;;5037161;28;20041;-75
2023/12/21 06:16:28;;;;;;;2.25;0.90;;;9.80;99.90;;;;;;5040394;28;20658;-78
2023/12/21 06:18:54;;;;;;;6.18;1.20;;;9.70;99.90;;;;;;5021491;28;20054;-77
2023/12/21 06:21:20;;;;;;;9.00;0.63;;;9.80;99.90;;;;;;5019204;28;20037;-79
2023/12/21 06:23:46;;;;;;;0.75;0.52;;;9.80;99.90;;;;;;5036948;28;20049;-76
2023/12/21 06:26:12;;;;;;;2.25;0.52;;;9.70;99.90;;;;;;5038075;28;20037;-76
2023/12/21 06:28:38;;;;;;;1.50;0.98;;;9.70;99.90;;;;;;5023477;28;20049;-76
2023/12/21 06:31:04;;;;;;;2.30;1.60;;;9.70;99.90;;;;;;5027533;28;20057;-74
2023/12/21 06:33:31;;;;;;;1.25;0.90;;;9.70;99.90;;;;;;5032558;28;20049;-75
2023/12/21 06:35:57;;;;;;;4.35;0.77;;;9.70;99.90;;;;;;5035198;28;20033;-75
2023/12/21 06:38:22;;;;;;;1.52;0.68;;;9.70;99.90;;;;;;5014599;28;20041;-77
2023/12/21 06:40:50;;;;;;;1.48;0.77;;;9.60;99.90;;;;;;5038170;28;20049;-76
2023/12/21 06:43:16;;;;;;;4.15;1.17;;;9.60;99.90;;;;;;5037865;28;20056;-78
2023/12/21 06:45:42;;;;;;;1.67;0.90;;;9.60;99.90;;;;;;5036106;28;20045;-76
2023/12/21 06:48:08;;;;;;;4.53;1.02;;;9.50;99.90;;;;;;5036481;28;20043;-75
2023/12/21 06:50:34;;;;;;;3.17;0.77;;;9.50;99.90;;;;;;5035601;28;20041;-76
2023/12/21 06:53:00;;;;;;;6.32;1.10;;;9.50;99.90;;;;;;5036476;28;20037;-78
2023/12/21 06:55:26;;;;;;;7.60;1.20;;;9.50;99.90;;;;;;5032477;28;20482;-77
2023/12/21 06:57:51;;;;;;;6.50;0.88;;;9.40;99.90;;;;;;5038457;28;20398;-77
2023/12/21 07:00:17;;;;;;;4.10;0.88;;;9.40;99.90;;;;;;5026883;28;20128;-75
2023/12/21 07:02:43;;;;;;;4.32;1.13;;;9.40;99.90;;;;;;5033853;28;20045;-79
2023/12/21 07:05:09;;;;;;;4.50;0.90;;;9.40;99.90;;;;;;5032110;28;20111;-77
2023/12/21 07:07:35;;;;;;;4.22;0.75;;;9.40;99.90;;;;;;5039245;28;20111;-78
2023/12/21 07:10:00;;;;;;;5.03;0.65;;;9.40;99.90;;;;;;5019359;28;20037;-77
2023/12/21 07:12:27;;;;;;;0.77;0.38;;;9.40;99.90;;;;;;5042948;28;20489;-79
2023/12/21 07:14:54;;;;;;;3.25;1.13;;;9.40;99.90;;;;;;5039041;28;20049;-79
2023/12/21 07:17:19;;;;;;;3.70;1.20;;;9.40;99.90;;;;;;5043496;28;20045;-79
2023/12/21 07:19:45;;;;;;;0.60;0.47;;;9.40;99.90;;;;;;5035162;28;20041;-77
2023/12/21 07:22:11;;;;;;;0.73;0.57;;;9.40;99.90;;;;;;5034652;28;20041;-79
2023/12/21 07:24:37;;;;;;;0.90;0.60;;;9.40;99.90;;;;;;5035007;28;20052;-76
2023/12/21 07:27:03;;;;;;;0.75;0.50;;;9.30;99.90;;;;;;5031402;28;20474;-77
2023/12/21 07:29:29;;;;;;;6.88;0.98;;;9.40;99.90;;;;;;5031286;28;20127;-77
2023/12/21 07:31:55;;;;;;;1.58;0.95;;;9.30;99.90;;;;;;5030601;28;20085;-78
2023/12/21 07:34:21;;;;;;;6.75;1.10;;;9.30;99.90;;;;;;5018814;28;20436;-78
2023/12/21 07:36:46;;;;;;;0.82;0.40;;;9.30;99.90;;;;;;5026629;28;20096;-77
2023/12/21 07:39:12;;;;;;;0.93;0.43;;;9.30;99.90;;;;;;5032602;28;20110;-77
2023/12/21 07:41:38;;;;;;;0.55;0.45;;;9.30;99.90;;;;;;5027110;28;20072;-77
2023/12/21 07:44:05;;;;;;;2.10;1.17;;;9.30;99.90;;;;;;5030795;28;20041;-78
2023/12/21 07:46:31;;;;;;;2.05;0.65;;;9.30;99.90;;;;;;5030340;28;20040;-77
2023/12/21 07:48:56;;;;;;;1.88;0.70;;;9.30;99.90;;;;;;5030791;28;20052;-76
2023/12/21 07:51:22;;;;;;;4.47;0.80;;;9.30;99.90;;;;;;5013493;28;20041;-78
2023/12/21 07:53:48;;;;;;;6.07;1.05;;;9.30;99.90;;;;;;5016586;28;20040;-77
2023/12/21 07:56:14;;;;;;;2.92;0.55;;;9.30;99.90;;;;;;5023536;28;20033;-78
2023/12/21 07:58:40;;;;;;;1.75;0.60;;;9.30;99.90;;;;;;5026579;28;20430;-74
2023/12/21 08:01:05;;;;;;;3.50;0.95;;;9.30;99.90;;;;;;5026348;28;20045;-76
2023/12/21 08:03:31;;;;;;;2.33;0.60;;;9.30;99.90;;;;;;5013926;28;20371;-74
2023/12/21 08:05:57;;;;;;;4.13;0.85;;;9.30;99.90;;;;;;5023305;28;20052;-78
2023/12/21 08:08:23;;;;;;;5.20;0.47;;;9.30;99.90;;;;;;5024546;28;20037;-75
2023/12/21 08:10:48;;;;;;;4.30;0.73;;;9.30;99.90;;;;;;5033973;28;20076;-74
2023/12/21 08:13:14;;;;;;;6.95;1.30;;;9.30;99.90;;;;;;5029502;28;20044;-78
2023/12/21 08:15:40;;;;;;;4.40;0.60;;;9.30;99.90;;;;;;5029901;28;20041;-75
2023/12/21 08:18:06;;;;;;;0.90;0.63;;;9.30;99.90;;;;;;5025466;28;20036;-74
2023/12/21 08:20:35;;;;;;;4.00;0.73;;;9.30;99.90;;;;;;5030648;28;20037;-77
2023/12/21 08:23:03;;;;;;;7.95;1.17;;;9.30;99.90;;;;;;5033272;28;20383;-76
2023/12/21 08:25:31;;;;;;;1.13;0.52;;;9.30;99.90;;;;;;5029738;28;20127;-76
2023/12/21 08:27:57;;;;;;;2.75;0.50;;;9.40;99.90;;;;;;5029694;28;20109;-77
2023/12/21 08:30:23;;;;;;;7.38;0.73;;;9.30;99.90;;;;;;5034394;28;20117;-76
2023/12/21 08:32:51;;;;;;;4.00;1.27;;;9.40;99.90;;;;;;5013487;28;20037;-77
2023/12/21 08:35:17;;;;;;;3.00;1.10;;;9.30;99.90;;;;;;5025882;28;20033;-76
2023/12/21 08:37:43;;;;;;;3.20;1.00;;;9.40;99.90;;;;;;5022722;28;20406;-76
2023/12/21 08:40:10;;;;;;;1.98;0.50;;;9.30;99.90;;;;;;5031971;28;20484;-74
2023/12/21 08:42:36;;;;;;;5.53;0.90;;;9.40;99.90;;;;;;5048358;28;20388;-75
2023/12/21 08:45:05;;;;;;;4.38;1.27;;;9.40;99.90;;;;;;5036385;28;20047;-74
2023/12/21 08:47:38;;;;;;;2.17;0.68;;;9.40;99.90;;;;;;5052547;28;20041;-73
2023/12/21 08:50:04;;;;;;;4.13;1.83;;;9.40;99.90;;;;;;5057146;28;20052;-75
2023/12/21 08:52:30;;;;;;;9.07;2.10;;;9.40;99.90;;;;;;5051695;28;20040;-74
2023/12/21 08:54:56;;;;;;;4.55;1.00;;;9.50;99.90;;;;;;5048377;28;20036;-75
2023/12/21 08:57:22;;;;;;;1.52;0.47;;;9.50;99.90;;;;;;5052510;28;20037;-75
2023/12/21 08:59:48;;;;;;;5.75;1.02;;;9.50;99.90;;;;;;5051142;28;20465;-74
2023/12/21 09:02:14;;;;;;;2.45;1.15;;;9.60;99.90;;;;;;5056307;28;20389;-74
2023/12/21 09:04:40;;;;;;;9.65;2.35;;;9.60;99.90;;;;;;5046623;28;20041;-74
2023/12/21 09:07:06;;;;;;;3.35;1.63;;;9.60;99.90;;;;;;5073423;28;20049;-74
2023/12/21 09:09:31;;;;;;;7.60;1.73;;;9.60;99.90;;;;;;5056143;28;20067;-75
2023/12/21 09:11:58;;;;;;;6.07;1.40;;;9.60;99.90;;;;;;5041170;28;20047;-74
2023/12/21 09:14:24;;;;;;;6.32;1.23;;;9.70;99.90;;;;;;5048033;28;20128;-74
2023/12/21 09:16:53;;;;;;;7.05;1.25;;;9.70;99.90;;;;;;5055877;28;20558;-75
2023/12/21 09:19:19;;;;;;;6.40;1.70;;;9.70;99.90;;;;;;5044063;28;20511;-74
2023/12/21 09:21:45;;;;;;;0.75;0.35;;;9.70;99.90;;;;;;5047863;28;20051;-74
2023/12/21 09:24:11;;;;;;;3.78;1.63;;;9.80;99.90;;;;;;5053619;28;20032;-76
2023/12/21 09:26:36;;;;;;;1.98;1.17;;;9.80;99.90;;;;;;5063674;28;20040;-76
2023/12/21 09:29:04;;;;;;;1.88;0.65;;;9.80;99.90;;;;;;5061480;28;20037;-73
2023/12/21 09:31:32;;;;;;;10.60;0.75;;;9.90;99.90;;;;;;5056248;28;20062;-75
2023/12/21 09:33:59;;;;;;;3.13;0.65;;;10.00;99.90;;;;;;5054610;28;20166;-76
2023/12/21 09:36:25;;;;;;;6.97;0.90;;;10.10;99.90;;;;;;5057343;28;20037;-75
2023/12/21 09:38:52;;;;;;;1.58;0.77;;;10.20;99.90;;;;;;5057158;28;20055;-75
2023/12/21 09:41:18;;;;;;;3.65;1.08;;;10.20;99.90;;;;;;5036001;28;20056;-74
2023/12/21 09:43:47;;;;;;;5.78;0.77;;;10.20;99.90;;;;;;5032375;28;20037;-75
2023/12/21 09:46:14;;;;;;;8.85;0.85;;;10.30;99.90;;;;;;5032550;28;20037;-73
2023/12/21 09:48:42;;;;;;;4.45;1.88;;;10.40;99.90;;;;;;5015685;28;20041;-75
2023/12/21 09:51:10;;;;;;;0.68;0.50;;;10.40;99.90;;;;;;5033868;28;20040;-74
2023/12/21 09:53:36;;;;;;;2.40;1.13;;;10.40;99.90;;;;;;5032131;28;20501;-76
2023/12/21 09:56:05;;;;;;;4.00;0.90;;;10.50;99.90;;;;;;5040091;28;20056;-76
2023/12/21 09:58:32;;;;;;;1.40;0.75;;;10.60;99.90;;;;;;5038913;28;20044;-78
2023/12/21 10:00:58;;;;;;;9.27;2.47;;;10.60;99.90;;;;;;5028558;28;20045;-76
2023/12/21 10:03:24;;;;;;;4.53;1.13;;;10.70;99.90;;;;;;5036717;28;20695;-75
2023/12/21 10:05:50;;;;;;;5.28;1.83;;;10.70;99.90;;;;;;5024326;28;20036;-75
2023/12/21 10:08:18;;;;;;;6.43;1.48;;;10.70;99.90;;;;;;5031912;28;20060;-77
2023/12/21 10:10:44;;;;;;;2.53;1.20;;;10.70;99.90;;;;;;5036132;28;20052;-76
2023/12/21 10:13:11;;;;;;;9.75;1.75;;;10.80;99.90;;;;;;5034465;28;20030;-77
2023/12/21 10:15:37;;;;;;;5.78;1.65;;;10.90;99.90;;;;;;5020749;28;20483;-76
2023/12/21 10:18:06;;;;;;;10.95;1.52;;;10.90;99.90;;;;;;5035520;28;20136;-74
2023/12/21 10:20:32;;;;;;;3.33;1.10;;;11.00;99.90;;;;;;5039835;28;20504;-78
2023/12/21 10:22:58;;;;;;;3.67;0.90;;;11.00;99.90;;;;;;5031499;28;20065;-73
2023/12/21 10:25:26;;;;;;;6.50;1.00;;;11.00;99.90;;;;;;5032392;28;20038;-76
2023/12/21 10:27:56;;;;;;;6.70;1.80;;;11.10;99.90;;;;;;5027186;28;20044;-77
2023/12/21 10:30:23;;;;;;;5.53;1.85;;;11.10;99.90;;;;;;5028235;28;20036;-75
2023/12/21 10:32:56;;;;;;;2.00;0.98;;;11.10;99.90;;;;;;5029288;28;20044;-79
2023/12/21 10:35:26;;;;;;;4.93;1.67;;;11.10;99.90;;;;;;5032124;28;20037;-77
2023/12/21 10:37:52;;;;;;;2.97;0.98;;;11.10;99.90;;;;;;5023074;28;20083;-77
2023/12/21 10:40:17;;;;;;;3.00;0.45;;;11.10;99.90;;;;;;5019924;28;20591;-76
2023/12/21 10:42:49;;;;;;;21.77;2.17;;;11.10;99.90;;;;;;5041994;28;20053;-72
2023/12/21 10:45:16;;;;;;;6.40;1.75;;;11.10;99.90;;;;;;5059644;28;20041;-79
2023/12/21 10:48:12;;;;;;;8.85;1.17;;;11.20;99.90;;;;;;5060613;28;20484;-78
2023/12/21 10:50:39;;;;;;;3.17;0.57;;;11.20;99.90;;;;;;5053068;28;20033;-77
2023/12/21 10:53:05;;;;;;;6.70;1.05;;;11.10;99.90;;;;;;5068400;28;20032;-75
2023/12/21 10:55:35;;;;;;;6.28;1.67;;;11.10;99.90;;;;;;5065187;28;20123;-76
2023/12/21 10:58:01;;;;;;;14.50;2.03;;;11.20;99.90;;;;;;5054796;28;20048;-73
2023/12/21 11:00:27;;;;;;;4.38;1.00;;;11.20;99.90;;;;;;5056999;28;20047;-77
2023/12/21 11:02:55;;;;;;;8.45;2.00;;;11.20;99.90;;;;;;5054149;28;20040;-77
2023/12/21 11:05:22;;;;;;;3.55;1.33;;;11.30;99.90;;;;;;5050407;28;20067;-74
2023/12/21 11:07:57;;;;;;;5.68;0.82;;;11.30;99.90;;;;;;5041364;28;20098;-76
2023/12/21 11:10:23;;;;;;;8.35;1.85;;;11.30;99.90;;;;;;5054439;28;20081;-79
2023/12/21 11:12:50;;;;;;;4.97;1.00;;;11.20;99.90;;;;;;5052898;28;20052;-75
2023/12/21 11:15:18;;;;;;;5.60;1.00;;;11.20;99.90;;;;;;5057674;28;20833;-77
2023/12/21 11:17:49;;;;;;;4.53;0.77;;;11.30;99.90;;;;;;5048598;28;20048;-78
2023/12/21 11:20:20;;;;;;;11.15;1.73;;;11.30;99.90;;;;;;5061669;28;20044;-76
2023/12/21 11:22:47;;;;;;;18.70;3.08;;;11.30;99.90;;;;;;5057475;28;20037;-79
2023/12/21 11:25:13;;;;;;;13.73;1.83;;;11.20;99.90;;;;;;5033030;28;20068;-77
2023/12/21 11:27:40;;;;;;;16.40;2.38;;;11.20;99.90;;;;;;5057961;28;20044;-75
2023/12/21 11:30:11;;;;;;;12.38;1.88;;;11.20;99.90;;;;;;5052905;28;20043;-73
2023/12/21 11:32:40;;;;;;;12.85;2.33;;;11.20;99.90;;;;;;5061634;28;20635;-72
2023/12/21 11:35:22;;;;;;;5.95;2.40;;;11.20;99.90;;;;;;5061806;28;20115;-77
2023/12/21 11:37:55;;;;;;;14.57;2.45;;;11.20;99.90;;;;;;5056581;28;20048;-77
2023/12/21 11:40:25;;;;;;;12.13;1.83;;;11.20;99.90;;;;;;5064371;28;20048;-72
2023/12/21 11:42:54;;;;;;;;;;;11.20;99.90;;;;;;5040714;28;20051;-72
2023/12/21 11:45:30;;;;;;;7.10;2.10;;;11.20;99.90;;;;;;5053038;28;19920;-70
2023/12/21 11:48:04;;;;;;;8.73;1.55;;;11.30;99.90;;;;;;5049579;28;20524;-77
2023/12/21 11:50:33;;;;;;;16.05;2.35;;;11.30;99.90;;;;;;5047680;28;20111;-76
2023/12/21 11:53:11;;;;;;;4.32;1.92;;;11.30;99.90;;;;;;5060843;28;20090;-73
2023/12/21 11:55:42;;;;;;;8.52;2.03;;;11.30;99.90;;;;;;5062275;28;20039;-74
2023/12/21 11:58:22;;;;;;;6.45;1.85;;;11.20;99.90;;;;;;5055395;28;20667;-75
2023/12/21 12:00:52;;;;;;;10.88;1.75;;;11.20;99.90;;;;;;5052865;28;20052;-75
2023/12/21 12:03:20;;;;;;;10.82;1.45;;;11.30;99.90;;;;;;5052868;28;20044;-72
2023/12/21 12:05:52;;;;;;;9.60;1.58;;;11.50;99.90;;;;;;5035830;28;20059;-74
2023/12/21 12:08:24;;;;;;;4.93;1.30;;;11.60;99.90;;;;;;5055386;28;20033;-75
2023/12/21 12:10:54;;;;;;;4.97;1.33;;;11.60;99.90;;;;;;5048836;28;20059;-76
2023/12/21 12:13:21;;;;;;;;;;;11.50;99.90;;;;;;5032775;28;20639;-72
2023/12/21 12:15:48;;;;;;;4.65;1.42;;;11.50;99.90;;;;;;5028422;28;20381;-75
2023/12/21 12:18:14;;;;;;;9.13;1.40;;;11.40;99.90;;;;;;5056266;28;20094;-74
2023/12/21 12:20:44;;;;;;;5.55;2.40;;;11.50;99.90;;;;;;5057508;28;20037;-79
2023/12/21 12:23:10;;;;;;;;;;;11.40;99.90;;;;;;5047161;28;20045;-74
2023/12/21 12:25:36;;;;;;;14.65;2.20;;;11.40;99.90;;;;;;5045053;28;19942;-73
2023/12/21 12:28:04;;;;;;;18.80;2.30;;;11.30;99.90;;;;;;5038316;28;20033;-74
2023/12/21 12:30:30;;;;;;;8.52;1.63;;;11.30;99.90;;;;;;5047676;28;20052;-77
2023/12/21 12:33:02;;;;;;;9.48;1.90;;;11.30;99.90;;;;;;5044687;28;20029;-79
2023/12/21 12:35:28;;;;;;;6.30;1.13;;;11.20;99.90;;;;;;5052405;28;20051;-71
2023/12/21 12:37:55;;;;;;;10.60;1.75;;;11.30;99.90;;;;;;5055717;28;20047;-72
2023/12/21 12:40:23;;;;;;;4.22;1.10;;;11.40;99.90;;;;;;5047775;28;20436;-76
2023/12/21 12:42:50;;;;;;;9.88;2.22;;;11.30;99.90;;;;;;5035646;28;20128;-71
2023/12/21 12:45:16;;;;;;;8.32;2.08;;;11.40;99.90;;;;;;5034722;28;20055;-78
2023/12/21 12:47:42;;;;;;;5.05;1.00;;;11.40;99.90;;;;;;5066907;28;20032;-71
2023/12/21 12:50:11;;;;;;;6.93;2.00;;;11.40;99.90;;;;;;5058082;28;20817;-80
2023/12/21 12:52:41;;;;;;;3.88;0.98;;;11.50;99.90;;;;;;5056087;28;20133;-76